createdAt,value
2023-04-17T00:00:27.927Z,86.14
2023-04-17T00:01:29.611Z,86.43
2023-04-17T00:02:32.065Z,86.45
2023-04-17T00:03:33.978Z,86.31
2023-04-17T00:04:35.887Z,86.24
2023-04-17T00:05:38.415Z,86.36
2023-04-17T00:06:40.137Z,86.15
2023-04-17T00:07:41.760Z,86.19
2023-04-17T00:08:43.715Z,85.97
2023-04-17T00:09:45.356Z,86.02
2023-04-17T00:10:51.255Z,85.85
2023-04-17T00:12:02.398Z,85.68
2023-04-17T00:13:04.074Z,85.79
2023-04-17T00:14:06.007Z,85.70
2023-04-17T00:15:08.082Z,85.35
2023-04-17T00:16:13.880Z,85.35
2023-04-17T00:17:15.800Z,85.38
2023-04-17T00:18:17.376Z,85.07
2023-04-17T00:19:19.018Z,84.90
2023-04-17T00:20:20.719Z,84.72
2023-04-17T00:21:22.319Z,84.77
2023-04-17T00:22:23.951Z,84.55
2023-04-17T00:23:26.200Z,84.75
2023-04-17T00:24:27.820Z,84.35
2023-04-17T00:25:29.430Z,84.28
2023-04-17T00:26:32.468Z,84.24
2023-04-17T00:27:34.067Z,84.17
2023-04-17T00:28:35.705Z,84.21
2023-04-17T00:29:37.641Z,84.08
2023-04-17T00:30:39.241Z,83.86
2023-04-17T00:31:40.962Z,83.82
2023-04-17T00:32:42.617Z,83.92
2023-04-17T00:33:44.374Z,84.14
2023-04-17T00:34:46.101Z,84.08
2023-04-17T00:35:47.968Z,84.24
2023-04-17T00:36:49.540Z,84.30
2023-04-17T00:37:51.134Z,84.14
2023-04-17T00:38:52.819Z,84.09
2023-04-17T00:39:54.428Z,83.88
2023-04-17T00:40:56.701Z,84.13
2023-04-17T00:41:58.615Z,84.01
2023-04-17T00:43:03.274Z,84.08
2023-04-17T00:44:05.039Z,83.94
2023-04-17T00:45:10.889Z,83.94
2023-04-17T00:46:13.193Z,83.91
2023-04-17T00:47:14.879Z,83.93
2023-04-17T00:48:16.942Z,84.00
2023-04-17T00:49:18.634Z,83.96
2023-04-17T00:50:20.250Z,83.70
2023-04-17T00:51:21.869Z,83.64
2023-04-17T00:52:28.921Z,83.53
2023-04-17T00:53:31.244Z,83.70
2023-04-17T00:54:32.907Z,83.56
2023-04-17T00:55:35.385Z,83.60
2023-04-17T00:56:36.961Z,83.49
2023-04-17T00:57:38.607Z,83.57
2023-04-17T00:58:40.267Z,84.00
2023-04-17T00:59:41.874Z,84.22
2023-04-17T01:00:43.502Z,84.19
2023-04-17T01:01:45.590Z,84.22
2023-04-17T01:02:47.665Z,84.14
2023-04-17T01:03:50.974Z,84.03
2023-04-17T01:04:52.701Z,84.15
2023-04-17T01:05:54.375Z,84.29
2023-04-17T01:06:56.118Z,83.90
2023-04-17T01:07:57.828Z,84.12
2023-04-17T01:08:59.817Z,84.09
2023-04-17T01:10:01.401Z,83.90
2023-04-17T01:11:03.059Z,83.76
2023-04-17T01:12:21.429Z,83.83
2023-04-17T01:13:23.091Z,83.82
2023-04-17T01:14:24.695Z,83.81
2023-04-17T01:15:26.529Z,83.51
2023-04-17T01:16:30.773Z,83.54
2023-04-17T01:17:32.524Z,83.34
2023-04-17T01:18:34.156Z,83.65
2023-04-17T01:19:36.235Z,83.55
2023-04-17T01:20:37.895Z,83.34
2023-04-17T01:21:39.460Z,83.39
2023-04-17T01:22:41.039Z,83.34
2023-04-17T01:23:48.755Z,83.33
2023-04-17T01:24:50.469Z,83.16
2023-04-17T01:25:52.107Z,83.28
2023-04-17T01:26:53.794Z,83.28
2023-04-17T01:27:55.457Z,83.14
2023-04-17T01:28:58.123Z,82.97
2023-04-17T01:29:59.727Z,83.19
2023-04-17T01:31:01.466Z,83.07
2023-04-17T01:32:03.126Z,83.00
2023-04-17T01:33:04.849Z,83.07
2023-04-17T01:34:06.469Z,82.95
2023-04-17T01:35:08.440Z,83.11
2023-04-17T01:36:10.125Z,83.21
2023-04-17T01:37:11.719Z,83.42
2023-04-17T01:38:13.374Z,83.44
2023-04-17T01:39:15.021Z,83.78
2023-04-17T01:40:16.702Z,83.47
2023-04-17T01:41:18.322Z,83.74
2023-04-17T01:42:19.912Z,83.77
2023-04-17T01:43:21.597Z,83.82
2023-04-17T01:44:23.241Z,83.92
2023-04-17T01:45:24.838Z,83.71
2023-04-17T01:46:26.471Z,83.76
2023-04-17T01:47:28.096Z,83.97
2023-04-17T01:48:29.775Z,83.79
2023-04-17T01:49:31.410Z,83.59
2023-04-17T01:50:33.027Z,83.38
2023-04-17T01:51:34.633Z,83.78
2023-04-17T01:52:36.608Z,83.45
2023-04-17T01:53:39.260Z,83.55
2023-04-17T01:54:40.947Z,83.57
2023-04-17T01:55:42.622Z,83.50
2023-04-17T01:56:44.214Z,83.51
2023-04-17T01:57:45.850Z,83.40
2023-04-17T01:58:47.506Z,83.45
2023-04-17T01:59:49.190Z,83.26
2023-04-17T02:00:51.356Z,83.54
2023-04-17T02:01:53.080Z,83.38
2023-04-17T02:02:54.902Z,83.55
2023-04-17T02:03:56.745Z,83.38
2023-04-17T02:04:58.564Z,83.49
2023-04-17T02:06:00.819Z,83.72
2023-04-17T02:07:02.900Z,83.76
2023-04-17T02:08:04.641Z,84.04
2023-04-17T02:09:06.263Z,83.88
2023-04-17T02:10:08.375Z,83.82
2023-04-17T02:11:10.324Z,83.66
2023-04-17T02:12:11.883Z,84.07
2023-04-17T02:13:14.076Z,83.91
2023-04-17T02:14:17.576Z,83.91
2023-04-17T02:15:19.500Z,83.76
2023-04-17T02:16:24.302Z,83.74
2023-04-17T02:17:26.060Z,83.69
2023-04-17T02:18:28.386Z,83.73
2023-04-17T02:19:29.994Z,83.66
2023-04-17T02:20:35.215Z,83.76
2023-04-17T02:21:36.790Z,83.91
2023-04-17T02:22:38.506Z,83.81
2023-04-17T02:23:40.090Z,83.72
2023-04-17T02:24:41.815Z,83.70
2023-04-17T02:25:43.407Z,83.52
2023-04-17T02:26:45.152Z,83.48
2023-04-17T02:27:47.118Z,83.25
2023-04-17T02:28:48.770Z,83.24
2023-04-17T02:29:50.361Z,83.35
2023-04-17T02:30:51.959Z,83.24
2023-04-17T02:31:53.668Z,83.37
2023-04-17T02:32:56.145Z,83.35
2023-04-17T02:33:57.802Z,83.22
2023-04-17T02:34:59.381Z,83.19
2023-04-17T02:36:01.043Z,83.25
2023-04-17T02:37:02.956Z,83.28
2023-04-17T02:38:04.569Z,83.28
2023-04-17T02:39:06.255Z,83.26
2023-04-17T02:40:09.678Z,83.43
2023-04-17T02:41:11.366Z,83.49
2023-04-17T02:42:13.102Z,83.55
2023-04-17T02:43:14.725Z,83.51
2023-04-17T02:44:16.335Z,83.60
2023-04-17T02:45:17.940Z,83.46
2023-04-17T02:46:19.651Z,83.40
2023-04-17T02:47:21.590Z,83.43
2023-04-17T02:48:23.208Z,83.68
2023-04-17T02:49:24.839Z,83.76
2023-04-17T02:50:26.427Z,83.70
2023-04-17T02:51:28.012Z,83.70
2023-04-17T02:52:30.014Z,83.92
2023-04-17T02:53:31.613Z,83.87
2023-04-17T02:54:33.427Z,83.85
2023-04-17T02:55:35.312Z,83.95
2023-04-17T02:56:36.908Z,84.12
2023-04-17T02:57:38.578Z,83.88
2023-04-17T02:58:40.172Z,83.93
2023-04-17T02:59:41.744Z,83.94
2023-04-17T03:00:43.356Z,83.82
2023-04-17T03:01:45.867Z,83.85
2023-04-17T03:02:48.061Z,83.89
2023-04-17T03:03:49.979Z,83.77
2023-04-17T03:04:51.871Z,83.86
2023-04-17T03:05:53.476Z,83.84
2023-04-17T03:06:55.158Z,83.91
2023-04-17T03:07:58.746Z,83.79
2023-04-17T03:09:00.356Z,83.98
2023-04-17T03:10:02.920Z,83.76
2023-04-17T03:11:05.523Z,83.49
2023-04-17T03:12:07.313Z,83.52
2023-04-17T03:13:08.950Z,83.47
2023-04-17T03:14:10.849Z,83.72
2023-04-17T03:15:12.698Z,83.55
2023-04-17T03:16:14.364Z,83.79
2023-04-17T03:17:16.472Z,83.66
2023-04-17T03:18:18.110Z,83.57
2023-04-17T03:19:19.712Z,83.84
2023-04-17T03:20:21.604Z,84.09
2023-04-17T03:21:23.185Z,84.46
2023-04-17T03:22:24.797Z,84.39
2023-04-17T03:23:26.438Z,84.56
2023-04-17T03:24:28.349Z,84.55
2023-04-17T03:25:29.936Z,84.57
2023-04-17T03:26:31.524Z,84.86
2023-04-17T03:27:33.136Z,84.89
2023-04-17T03:28:34.709Z,84.89
2023-04-17T03:29:36.435Z,84.89
2023-04-17T03:30:38.122Z,85.01
2023-04-17T03:31:39.753Z,85.04
2023-04-17T03:32:42.165Z,84.66
2023-04-17T03:33:43.857Z,84.64
2023-04-17T03:34:45.980Z,84.44
2023-04-17T03:35:47.617Z,84.09
2023-04-17T03:36:49.350Z,84.04
2023-04-17T03:37:51.412Z,84.17
2023-04-17T03:38:52.989Z,84.38
2023-04-17T03:39:55.731Z,84.51
2023-04-17T03:40:57.492Z,84.71
2023-04-17T03:41:59.076Z,84.68
2023-04-17T03:43:01.237Z,84.73
2023-04-17T03:44:02.961Z,84.91
2023-04-17T03:45:04.907Z,85.14
2023-04-17T03:46:06.776Z,85.69
2023-04-17T03:47:08.449Z,85.80
2023-04-17T03:48:10.178Z,84.97
2023-04-17T03:49:11.979Z,85.40
2023-04-17T03:50:13.859Z,85.34
2023-04-17T03:51:16.385Z,85.35
2023-04-17T03:52:17.989Z,85.50
2023-04-17T03:53:19.781Z,85.22
2023-04-17T03:54:21.456Z,84.90
2023-04-17T03:55:23.062Z,84.88
2023-04-17T03:56:24.722Z,84.97
2023-04-17T03:57:26.479Z,84.95
2023-04-17T03:58:28.176Z,84.78
2023-04-17T03:59:31.421Z,85.24
2023-04-17T04:00:33.110Z,85.05
2023-04-17T04:01:38.584Z,84.79
2023-04-17T04:02:40.364Z,84.83
2023-04-17T04:03:42.521Z,84.49
2023-04-17T04:04:44.748Z,84.74
2023-04-17T04:05:46.389Z,84.73
2023-04-17T04:06:49.498Z,85.08
2023-04-17T04:07:51.074Z,84.81
2023-04-17T04:08:52.730Z,85.05
2023-04-17T04:09:54.336Z,84.57
2023-04-17T04:10:55.954Z,84.52
2023-04-17T04:11:58.278Z,84.74
2023-04-17T04:12:59.996Z,85.04
2023-04-17T04:14:01.625Z,84.53
2023-04-17T04:15:03.415Z,84.49
2023-04-17T04:16:05.410Z,84.11
2023-04-17T04:17:07.011Z,84.21
2023-04-17T04:18:08.635Z,84.46
2023-04-17T04:19:10.552Z,84.84
2023-04-17T04:20:12.810Z,84.53
2023-04-17T04:21:14.448Z,84.44
2023-04-17T04:22:16.097Z,84.41
2023-04-17T04:23:20.957Z,84.03
2023-04-17T04:24:22.518Z,84.46
2023-04-17T04:25:24.413Z,84.38
2023-04-17T04:26:27.301Z,84.26
2023-04-17T04:27:32.983Z,84.06
2023-04-17T04:28:34.707Z,83.78
2023-04-17T04:29:37.895Z,83.67
2023-04-17T04:30:39.548Z,83.24
2023-04-17T04:31:41.250Z,83.29
2023-04-17T04:32:45.760Z,83.28
2023-04-17T04:33:47.511Z,83.22
2023-04-17T04:34:49.083Z,83.06
2023-04-17T04:35:51.983Z,82.76
2023-04-17T04:36:53.578Z,82.91
2023-04-17T04:38:01.976Z,82.49
2023-04-17T04:39:06.895Z,83.07
2023-04-17T04:40:11.916Z,82.49
2023-04-17T04:41:14.965Z,82.57
2023-04-17T04:42:21.992Z,82.24
2023-04-17T04:43:23.821Z,82.49
2023-04-17T04:44:25.493Z,82.40
2023-04-17T04:45:27.126Z,82.20
2023-04-17T04:46:28.832Z,82.41
2023-04-17T04:47:30.711Z,82.32
2023-04-17T04:48:32.303Z,82.60
2023-04-17T04:49:33.932Z,82.08
2023-04-17T04:50:35.595Z,82.31
2023-04-17T04:51:37.256Z,82.13
2023-04-17T04:52:38.829Z,81.80
2023-04-17T04:53:40.463Z,81.40
2023-04-17T04:54:42.015Z,81.32
2023-04-17T04:55:43.707Z,80.98
2023-04-17T04:56:45.899Z,81.24
2023-04-17T04:57:47.582Z,80.90
2023-04-17T04:58:49.230Z,80.72
2023-04-17T04:59:50.913Z,80.61
2023-04-17T05:00:52.598Z,80.88
2023-04-17T05:01:54.265Z,80.83
2023-04-17T05:02:56.117Z,80.90
2023-04-17T05:03:57.979Z,80.70
2023-04-17T05:04:59.941Z,80.71
2023-04-17T05:06:01.831Z,80.95
2023-04-17T05:07:05.147Z,80.52
2023-04-17T05:08:06.755Z,80.31
2023-04-17T05:09:08.445Z,80.41
2023-04-17T05:10:10.253Z,80.29
2023-04-17T05:11:12.079Z,80.45
2023-04-17T05:12:13.736Z,80.09
2023-04-17T05:13:15.732Z,80.18
2023-04-17T05:14:17.372Z,79.87
2023-04-17T05:15:19.159Z,80.15
2023-04-17T05:16:20.829Z,79.48
2023-04-17T05:17:22.508Z,79.85
2023-04-17T05:18:24.184Z,79.77
2023-04-17T05:19:25.963Z,79.76
2023-04-17T05:20:27.614Z,79.77
2023-04-17T05:21:31.103Z,79.78
2023-04-17T05:22:33.056Z,80.13
2023-04-17T05:23:34.680Z,79.74
2023-04-17T05:24:36.267Z,79.99
2023-04-17T05:25:37.885Z,80.23
2023-04-17T05:26:39.519Z,80.03
2023-04-17T05:27:41.260Z,79.79
2023-04-17T05:28:45.162Z,79.91
2023-04-17T05:29:46.856Z,79.74
2023-04-17T05:30:48.486Z,80.04
2023-04-17T05:31:50.414Z,80.31
2023-04-17T05:32:54.033Z,80.28
2023-04-17T05:33:55.717Z,80.07
2023-04-17T05:34:57.488Z,80.11
2023-04-17T05:35:59.084Z,80.17
2023-04-17T05:37:00.855Z,79.79
2023-04-17T05:38:02.511Z,79.97
2023-04-17T05:39:04.365Z,80.34
2023-04-17T05:40:07.264Z,80.12
2023-04-17T05:41:08.868Z,80.23
2023-04-17T05:42:10.523Z,79.51
2023-04-17T05:43:12.334Z,79.95
2023-04-17T05:44:13.977Z,79.15
2023-04-17T05:45:16.096Z,79.62
2023-04-17T05:46:17.791Z,79.69
2023-04-17T05:47:19.522Z,79.37
2023-04-17T05:48:21.171Z,79.55
2023-04-17T05:49:23.155Z,80.01
2023-04-17T05:50:24.733Z,79.78
2023-04-17T05:51:26.633Z,79.30
2023-04-17T05:52:28.245Z,79.17
2023-04-17T05:53:31.196Z,79.25
2023-04-17T05:54:32.874Z,79.22
2023-04-17T05:55:34.527Z,78.81
2023-04-17T05:56:36.148Z,79.76
2023-04-17T05:57:37.859Z,80.03
2023-04-17T05:58:39.515Z,79.18
2023-04-17T05:59:41.208Z,79.54
2023-04-17T06:00:42.893Z,79.96
2023-04-17T06:01:44.527Z,79.74
2023-04-17T06:02:46.424Z,79.47
2023-04-17T06:03:48.618Z,78.97
2023-04-17T06:04:51.093Z,79.33
2023-04-17T06:05:52.845Z,79.52
2023-04-17T06:06:54.493Z,79.61
2023-04-17T06:07:56.128Z,79.21
2023-04-17T06:08:57.736Z,78.70
2023-04-17T06:09:59.582Z,79.17
2023-04-17T06:11:01.372Z,79.11
2023-04-17T06:12:06.290Z,79.03
2023-04-17T06:13:07.909Z,79.17
2023-04-17T06:14:09.574Z,79.09
2023-04-17T06:15:11.758Z,78.96
2023-04-17T06:16:13.667Z,78.85
2023-04-17T06:17:15.501Z,78.34
2023-04-17T06:18:17.899Z,78.44
2023-04-17T06:19:19.591Z,78.43
2023-04-17T06:20:21.363Z,78.06
2023-04-17T06:21:23.006Z,78.09
2023-04-17T06:22:24.739Z,78.49
2023-04-17T06:23:26.377Z,77.99
2023-04-17T06:24:27.948Z,77.61
2023-04-17T06:25:29.531Z,77.53
2023-04-17T06:26:31.438Z,77.97
2023-04-17T06:27:36.387Z,77.82
2023-04-17T06:28:38.569Z,78.05
2023-04-17T06:29:40.744Z,77.98
2023-04-17T06:30:42.406Z,77.81
2023-04-17T06:31:44.108Z,77.33
2023-04-17T06:32:45.878Z,76.63
2023-04-17T06:33:49.957Z,76.70
2023-04-17T06:34:59.223Z,77.08
2023-04-17T06:36:01.599Z,76.87
2023-04-17T06:37:03.306Z,76.96
2023-04-17T06:38:04.908Z,76.53
2023-04-17T06:39:06.511Z,75.87
2023-04-17T06:40:08.796Z,75.63
2023-04-17T06:41:10.676Z,76.11
2023-04-17T06:42:12.385Z,76.12
2023-04-17T06:43:16.382Z,74.94
2023-04-17T06:44:18.465Z,74.30
2023-04-17T06:45:20.065Z,74.16
2023-04-17T06:46:24.597Z,74.33
2023-04-17T06:47:26.234Z,73.64
2023-04-17T06:48:27.868Z,73.57
2023-04-17T06:49:31.698Z,73.99
2023-04-17T06:50:33.286Z,73.42
2023-04-17T06:51:35.171Z,74.32
2023-04-17T06:52:36.793Z,74.31
2023-04-17T06:53:38.454Z,74.44
2023-04-17T06:54:40.138Z,74.28
2023-04-17T06:55:41.795Z,74.93
2023-04-17T06:56:43.459Z,74.73
2023-04-17T06:57:45.144Z,74.97
2023-04-17T06:58:47.135Z,74.95
2023-04-17T06:59:48.931Z,75.39
2023-04-17T07:00:50.666Z,75.33
2023-04-17T07:01:52.684Z,75.35
2023-04-17T07:02:54.494Z,75.01
2023-04-17T07:03:56.317Z,74.97
2023-04-17T07:04:58.157Z,74.79
2023-04-17T07:05:59.822Z,74.15
2023-04-17T07:07:01.415Z,73.97
2023-04-17T07:08:03.123Z,73.75
2023-04-17T07:09:04.703Z,73.77
2023-04-17T07:10:07.048Z,73.96
2023-04-17T07:11:08.726Z,73.95
2023-04-17T07:12:10.436Z,73.30
2023-04-17T07:13:12.301Z,73.29
2023-04-17T07:14:13.897Z,73.06
2023-04-17T07:15:16.489Z,73.03
2023-04-17T07:16:18.238Z,72.68
2023-04-17T07:17:20.195Z,72.63
2023-04-17T07:18:21.968Z,72.57
2023-04-17T07:19:23.645Z,72.21
2023-04-17T07:20:25.349Z,71.14
2023-04-17T07:21:27.021Z,70.26
2023-04-17T07:22:28.906Z,69.99
2023-04-17T07:23:30.623Z,70.50
2023-04-17T07:24:35.036Z,69.53
2023-04-17T07:25:36.674Z,69.60
2023-04-17T07:26:40.356Z,69.97
2023-04-17T07:27:42.029Z,69.91
2023-04-17T07:28:43.761Z,68.41
2023-04-17T07:29:47.699Z,67.88
2023-04-17T07:30:49.296Z,67.64
2023-04-17T07:31:50.916Z,68.59
2023-04-17T07:32:52.674Z,68.42
2023-04-17T07:33:54.632Z,67.91
2023-04-17T07:34:56.423Z,67.43
2023-04-17T07:35:58.013Z,66.40
2023-04-17T07:36:59.671Z,65.40
2023-04-17T07:38:03.808Z,63.85
2023-04-17T07:39:07.293Z,63.71
2023-04-17T07:40:10.836Z,63.60
2023-04-17T07:41:12.925Z,63.26
2023-04-17T07:42:14.591Z,64.08
2023-04-17T07:43:16.814Z,63.36
2023-04-17T07:44:19.162Z,63.74
2023-04-17T07:45:20.817Z,62.13
2023-04-17T07:46:22.529Z,63.01
2023-04-17T07:47:24.403Z,62.43
2023-04-17T07:48:27.413Z,61.90
2023-04-17T07:49:29.023Z,61.68
2023-04-17T07:50:31.052Z,60.49
2023-04-17T07:51:32.983Z,61.64
2023-04-17T07:52:34.574Z,60.46
2023-04-17T07:53:37.298Z,60.00
2023-04-17T07:54:38.888Z,60.41
2023-04-17T07:55:40.489Z,60.26
2023-04-17T07:56:42.141Z,59.85
2023-04-17T07:57:46.582Z,59.52
2023-04-17T07:58:51.940Z,59.82
2023-04-17T07:59:53.572Z,61.19
2023-04-17T08:00:55.500Z,58.93
2023-04-17T08:01:57.744Z,59.59
2023-04-17T08:02:59.937Z,59.65
2023-04-17T08:04:02.334Z,59.39
2023-04-17T08:05:05.884Z,60.79
2023-04-17T08:06:07.737Z,60.77
2023-04-17T08:07:11.162Z,59.88
2023-04-17T08:08:12.931Z,61.00
2023-04-17T08:09:14.716Z,61.13
2023-04-17T08:10:16.306Z,61.59
2023-04-17T08:11:17.931Z,61.97
2023-04-17T08:12:19.596Z,61.99
2023-04-17T08:13:21.215Z,61.73
2023-04-17T08:14:23.751Z,62.29
2023-04-17T08:15:25.607Z,61.36
2023-04-17T08:16:27.315Z,60.20
2023-04-17T08:17:30.099Z,60.51
2023-04-17T08:18:32.407Z,60.34
2023-04-17T08:19:34.135Z,61.19
2023-04-17T08:20:36.090Z,60.83
2023-04-17T08:21:37.765Z,59.81
2023-04-17T08:22:40.642Z,61.29
2023-04-17T08:23:42.302Z,60.18
2023-04-17T08:24:43.930Z,60.53
2023-04-17T08:25:46.108Z,61.21
2023-04-17T08:26:47.927Z,60.69
2023-04-17T08:27:49.729Z,61.62
2023-04-17T08:28:54.232Z,59.97
2023-04-17T08:29:56.562Z,58.94
2023-04-17T08:30:58.416Z,58.55
2023-04-17T08:32:13.126Z,58.51
2023-04-17T08:33:17.184Z,57.80
2023-04-17T08:34:18.758Z,57.72
2023-04-17T08:35:20.851Z,58.58
2023-04-17T08:36:22.515Z,58.01
2023-04-17T08:37:24.247Z,57.38
2023-04-17T08:38:27.325Z,57.65
2023-04-17T08:39:28.927Z,57.04
2023-04-17T08:40:30.678Z,57.01
2023-04-17T08:41:37.433Z,57.72
2023-04-17T08:42:41.686Z,57.74
2023-04-17T08:43:43.366Z,58.12
2023-04-17T08:44:45.027Z,57.45
2023-04-17T08:45:53.951Z,56.86
2023-04-17T08:46:58.727Z,58.52
2023-04-17T08:48:01.127Z,58.11
2023-04-17T08:49:03.166Z,57.04
2023-04-17T08:50:14.295Z,56.81
2023-04-17T08:51:15.913Z,56.60
2023-04-17T08:52:17.565Z,56.70
2023-04-17T08:53:19.362Z,57.28
2023-04-17T08:54:22.145Z,56.76
2023-04-17T08:55:25.546Z,56.61
2023-04-17T08:56:29.082Z,56.83
2023-04-17T08:57:30.678Z,56.39
2023-04-17T08:58:35.514Z,56.86
2023-04-17T08:59:37.422Z,56.51
2023-04-17T09:00:40.556Z,57.33
2023-04-17T09:02:02.251Z,57.07
2023-04-17T09:03:09.046Z,56.56
2023-04-17T09:04:11.246Z,57.33
2023-04-17T09:05:21.228Z,57.11
2023-04-17T09:06:23.078Z,56.94
2023-04-17T09:07:29.710Z,57.10
2023-04-17T09:08:31.491Z,57.30
2023-04-17T09:09:52.923Z,57.07
2023-04-17T09:10:54.920Z,56.89
2023-04-17T09:12:09.265Z,55.62
2023-04-17T09:13:14.562Z,55.46
2023-04-17T09:14:45.890Z,55.61
2023-04-17T09:16:03.240Z,56.00
2023-04-17T09:17:04.993Z,56.11
2023-04-17T09:18:07.086Z,56.80
2023-04-17T09:19:08.818Z,57.03
2023-04-17T09:20:12.216Z,58.20
2023-04-17T09:21:16.911Z,56.61
2023-04-17T09:22:22.035Z,55.70
2023-04-17T09:23:23.735Z,56.43
2023-04-17T09:24:35.665Z,54.95
2023-04-17T09:25:37.321Z,54.63
2023-04-17T09:26:39.560Z,54.53
2023-04-17T09:27:41.347Z,55.77
2023-04-17T09:29:00.158Z,55.37
2023-04-17T09:30:06.015Z,54.62
2023-04-17T09:31:25.670Z,54.59
2023-04-17T09:32:27.549Z,54.63
2023-04-17T09:33:29.222Z,55.07
2023-04-17T09:34:30.880Z,55.47
2023-04-17T09:35:33.017Z,56.67
2023-04-17T09:36:37.023Z,56.86
2023-04-17T09:38:04.777Z,55.82
2023-04-17T09:39:18.096Z,55.47
2023-04-17T09:40:21.003Z,56.38
2023-04-17T09:41:24.257Z,56.02
2023-04-17T09:42:26.860Z,55.48
2023-04-17T09:43:43.421Z,54.94
2023-04-17T09:44:45.183Z,53.82
2023-04-17T09:45:46.779Z,55.58
2023-04-17T09:46:48.453Z,54.28
2023-04-17T09:47:51.850Z,54.78
2023-04-17T09:48:53.469Z,55.46
2023-04-17T09:49:56.017Z,55.80
2023-04-17T09:50:57.623Z,56.62
2023-04-17T09:51:59.367Z,55.28
2023-04-17T09:53:01.413Z,54.24
2023-04-17T09:54:07.120Z,54.08
2023-04-17T09:55:10.594Z,54.45
2023-04-17T09:56:13.714Z,54.88
2023-04-17T09:57:15.907Z,55.48
2023-04-17T09:58:17.478Z,54.74
2023-04-17T09:59:19.101Z,55.34
2023-04-17T10:00:21.563Z,54.21
2023-04-17T10:01:23.566Z,54.08
2023-04-17T10:02:26.124Z,53.99
2023-04-17T10:03:27.983Z,53.62
2023-04-17T10:04:29.782Z,54.61
2023-04-17T10:05:32.614Z,53.12
2023-04-17T10:06:34.857Z,53.83
2023-04-17T10:07:37.190Z,54.10
2023-04-17T10:08:38.848Z,54.40
2023-04-17T10:09:44.703Z,53.40
2023-04-17T10:10:46.729Z,54.03
2023-04-17T10:11:48.303Z,53.72
2023-04-17T10:12:50.389Z,53.22
2023-04-17T10:14:30.852Z,52.50
2023-04-17T10:15:32.551Z,53.35
2023-04-17T10:16:37.900Z,53.10
2023-04-17T10:17:39.613Z,53.01
2023-04-17T10:18:41.746Z,53.12
2023-04-17T10:19:43.380Z,52.93
2023-04-17T10:20:48.555Z,53.49
2023-04-17T10:22:18.349Z,52.60
2023-04-17T10:23:32.974Z,53.19
2023-04-17T10:24:35.089Z,53.61
2023-04-17T10:25:36.802Z,53.65
2023-04-17T10:26:38.412Z,52.34
2023-04-17T10:27:42.681Z,52.61
2023-04-17T10:28:48.398Z,52.06
2023-04-17T10:29:59.321Z,52.14
2023-04-17T10:31:02.060Z,52.07
2023-04-17T10:32:09.955Z,51.66
2023-04-17T10:33:20.642Z,51.04
2023-04-17T10:34:34.979Z,49.45
2023-04-17T10:35:36.933Z,48.41
2023-04-17T10:36:38.489Z,49.15
2023-04-17T10:38:04.046Z,48.72
2023-04-17T10:39:51.604Z,50.03
2023-04-17T10:40:53.278Z,50.68
2023-04-17T10:42:04.318Z,50.79
2023-04-17T10:43:20.547Z,51.91
2023-04-17T10:44:22.159Z,51.83
2023-04-17T10:45:23.899Z,52.99
2023-04-17T10:46:26.129Z,53.04
2023-04-17T10:47:31.406Z,52.91
2023-04-17T10:48:46.262Z,53.46
2023-04-17T10:50:00.968Z,51.56
2023-04-17T10:51:27.140Z,50.68
2023-04-17T10:52:35.988Z,50.40
2023-04-17T10:53:41.490Z,50.10
2023-04-17T10:55:06.548Z,51.13
2023-04-17T10:56:09.587Z,52.05
2023-04-17T10:57:11.871Z,51.99
2023-04-17T10:58:13.725Z,51.13
2023-04-17T10:59:16.976Z,51.78
2023-04-17T11:00:19.430Z,52.28
2023-04-17T11:01:21.444Z,51.65
2023-04-17T11:02:33.793Z,52.35
2023-04-17T11:03:37.397Z,51.00
2023-04-17T11:04:39.200Z,51.60
2023-04-17T11:05:47.207Z,52.53
2023-04-17T11:06:49.094Z,51.06
2023-04-17T11:07:51.053Z,50.50
2023-04-17T11:08:53.603Z,49.27
2023-04-17T11:09:55.514Z,49.66
2023-04-17T11:10:57.177Z,50.41
2023-04-17T11:12:01.524Z,49.61
2023-04-17T11:13:03.386Z,50.51
2023-04-17T11:14:06.794Z,51.84
2023-04-17T11:15:08.950Z,51.85
2023-04-17T11:16:10.781Z,51.73
2023-04-17T11:17:12.441Z,52.19
2023-04-17T11:18:14.053Z,51.74
2023-04-17T11:19:19.940Z,51.47
2023-04-17T11:20:23.365Z,52.66
2023-04-17T11:21:24.939Z,52.37
2023-04-17T11:22:28.003Z,52.45
2023-04-17T11:23:34.093Z,53.27
2023-04-17T11:24:35.780Z,54.30
2023-04-17T11:25:41.316Z,54.37
2023-04-17T11:26:46.326Z,54.03
2023-04-17T11:27:51.029Z,53.29
2023-04-17T11:28:52.766Z,53.70
2023-04-17T11:29:54.356Z,53.64
2023-04-17T11:30:55.938Z,53.74
2023-04-17T11:31:57.622Z,54.27
2023-04-17T11:33:03.818Z,54.13
2023-04-17T11:34:08.394Z,53.51
2023-04-17T11:35:11.023Z,53.53
2023-04-17T11:36:12.734Z,54.34
2023-04-17T11:37:15.026Z,53.87
2023-04-17T11:38:23.061Z,54.15
2023-04-17T11:39:26.076Z,53.51
2023-04-17T11:40:30.357Z,54.12
2023-04-17T11:41:38.602Z,55.33
2023-04-17T11:42:46.751Z,55.63
2023-04-17T11:43:48.457Z,55.21
2023-04-17T11:44:50.048Z,54.19
2023-04-17T11:45:59.264Z,54.31
2023-04-17T11:47:02.069Z,54.73
2023-04-17T11:48:04.039Z,53.77
2023-04-17T11:49:08.986Z,54.22
2023-04-17T11:50:11.037Z,54.29
2023-04-17T11:51:13.711Z,54.61
2023-04-17T11:52:17.592Z,55.00
2023-04-17T11:53:19.581Z,54.51
2023-04-17T11:54:31.677Z,55.48
2023-04-17T11:55:34.377Z,53.30
2023-04-17T11:56:36.101Z,53.74
2023-04-17T11:57:44.593Z,53.91
2023-04-17T11:58:50.294Z,54.09
2023-04-17T11:59:51.958Z,53.34
2023-04-17T12:01:06.924Z,54.74
2023-04-17T12:02:08.881Z,54.30
2023-04-17T12:03:36.616Z,54.82
2023-04-17T12:04:39.908Z,54.75
2023-04-17T12:05:42.099Z,54.06
2023-04-17T12:06:43.758Z,54.21
2023-04-17T12:07:45.662Z,55.08
2023-04-17T12:08:51.873Z,54.71
2023-04-17T12:09:57.262Z,53.96
2023-04-17T12:10:58.890Z,54.98
2023-04-17T12:12:07.440Z,54.60
2023-04-17T12:13:12.061Z,54.18
2023-04-17T12:14:14.079Z,54.83
2023-04-17T12:15:17.260Z,54.81
2023-04-17T12:16:19.152Z,55.02
2023-04-17T12:17:21.303Z,54.11
2023-04-17T12:18:23.063Z,55.21
2023-04-17T12:19:26.825Z,55.47
2023-04-17T12:20:28.619Z,55.19
2023-04-17T12:21:30.339Z,54.57
2023-04-17T12:22:32.251Z,55.01
2023-04-17T12:23:33.841Z,54.86
2023-04-17T12:24:35.577Z,54.55
2023-04-17T12:25:37.241Z,54.35
2023-04-17T12:26:47.947Z,53.61
2023-04-17T12:27:49.564Z,53.63
2023-04-17T12:28:51.512Z,53.19
2023-04-17T12:29:53.144Z,53.71
2023-04-17T12:30:54.931Z,52.98
2023-04-17T12:31:56.705Z,54.13
2023-04-17T12:32:58.560Z,53.29
2023-04-17T12:34:00.391Z,53.59
2023-04-17T12:35:02.073Z,52.81
2023-04-17T12:36:04.587Z,52.61
2023-04-17T12:37:06.411Z,52.57
2023-04-17T12:38:08.044Z,52.30
2023-04-17T12:39:09.622Z,53.54
2023-04-17T12:40:11.420Z,53.61
2023-04-17T12:41:13.182Z,54.06
2023-04-17T12:42:14.936Z,53.31
2023-04-17T12:43:16.602Z,52.05
2023-04-17T12:44:18.211Z,52.26
2023-04-17T12:45:20.073Z,52.91
2023-04-17T12:46:21.912Z,52.66
2023-04-17T12:47:23.679Z,53.23
2023-04-17T12:48:25.451Z,53.49
2023-04-17T12:49:27.317Z,53.55
2023-04-17T12:50:28.930Z,52.91
2023-04-17T12:51:32.280Z,52.60
2023-04-17T12:52:33.940Z,52.79
2023-04-17T12:53:35.548Z,53.47
2023-04-17T12:54:37.493Z,53.95
2023-04-17T12:55:39.609Z,53.97
2023-04-17T12:56:41.227Z,53.89
2023-04-17T12:57:42.931Z,54.73
2023-04-17T12:58:44.528Z,54.24
2023-04-17T12:59:46.142Z,54.41
2023-04-17T13:00:47.844Z,54.06
2023-04-17T13:01:49.598Z,54.31
2023-04-17T13:02:51.285Z,54.63
2023-04-17T13:03:53.318Z,53.45
2023-04-17T13:04:56.312Z,53.45
2023-04-17T13:05:57.931Z,53.04
2023-04-17T13:06:59.597Z,52.88
2023-04-17T13:08:01.223Z,52.20
2023-04-17T13:09:02.870Z,51.62
2023-04-17T13:10:04.799Z,52.17
2023-04-17T13:11:06.420Z,53.73
2023-04-17T13:12:08.029Z,53.68
2023-04-17T13:13:09.788Z,53.03
2023-04-17T13:14:11.630Z,51.67
2023-04-17T13:15:13.548Z,51.20
2023-04-17T13:16:15.255Z,51.28
2023-04-17T13:17:17.661Z,51.52
2023-04-17T13:18:19.399Z,52.09
2023-04-17T13:19:21.104Z,52.18
2023-04-17T13:20:22.694Z,52.04
2023-04-17T13:21:24.303Z,51.96
2023-04-17T13:22:26.012Z,52.11
2023-04-17T13:23:27.590Z,52.05
2023-04-17T13:24:29.271Z,52.00
2023-04-17T13:25:31.519Z,53.44
2023-04-17T13:26:33.148Z,52.06
2023-04-17T13:27:34.755Z,51.82
2023-04-17T13:28:36.327Z,51.46
2023-04-17T13:29:38.937Z,50.50
2023-04-17T13:30:40.693Z,50.67
2023-04-17T13:31:42.405Z,49.40